createdAt,value
2022-09-10T00:01:41.211Z,0.82
2022-09-10T00:04:11.612Z,2.28
2022-09-10T00:06:38.748Z,1.33
2022-09-10T00:09:06.134Z,0.82
2022-09-10T00:11:35.098Z,1.80
2022-09-10T00:14:06.458Z,1.50
2022-09-10T00:16:33.493Z,1.15
2022-09-10T00:19:05.753Z,0.68
2022-09-10T00:24:00.665Z,1.98
2022-09-10T00:26:37.033Z,5.07
2022-09-10T00:29:04.681Z,1.48
2022-09-10T00:31:35.907Z,0.50
2022-09-10T00:34:03.709Z,0.98
2022-09-10T00:36:42.280Z,1.30
2022-09-10T00:39:12.617Z,2.03
2022-09-10T00:41:41.747Z,1.23
2022-09-10T00:44:40.488Z,1.30
2022-09-10T00:47:19.153Z,2.20
2022-09-10T00:49:51.085Z,1.45
2022-09-10T00:52:18.700Z,1.45
2022-09-10T00:54:47.558Z,1.83
2022-09-10T00:57:21.684Z,2.65
2022-09-10T00:59:55.477Z,1.52
2022-09-10T01:02:26.334Z,2.10
2022-09-10T01:05:04.022Z,3.92
2022-09-10T01:07:33.552Z,1.10
2022-09-10T01:10:08.462Z,2.25
2022-09-10T01:13:04.929Z,4.15
2022-09-10T01:15:47.758Z,2.38
2022-09-10T01:18:33.186Z,2.80
2022-09-10T01:21:11.890Z,2.67
2022-09-10T01:24:17.389Z,2.78
2022-09-10T01:27:20.761Z,1.08
2022-09-10T01:30:03.423Z,2.65
2022-09-10T01:32:47.271Z,2.83
2022-09-10T01:35:25.261Z,2.40
2022-09-10T01:37:56.128Z,2.17
2022-09-10T01:40:29.708Z,3.00
2022-09-10T01:43:13.932Z,1.67
2022-09-10T01:46:10.349Z,2.97
2022-09-10T01:48:49.289Z,1.90
2022-09-10T01:51:44.823Z,2.47
2022-09-10T01:54:28.693Z,1.77
2022-09-10T01:57:20.118Z,1.60
2022-09-10T02:00:24.692Z,1.70
2022-09-10T02:03:01.367Z,3.00
2022-09-10T02:05:36.217Z,4.18
2022-09-10T02:08:12.987Z,2.35
2022-09-10T02:11:02.650Z,4.70
2022-09-10T02:13:36.369Z,3.63
2022-09-10T02:16:39.064Z,3.15
2022-09-10T02:19:06.365Z,2.60
2022-09-10T02:21:33.975Z,4.57
2022-09-10T02:24:08.501Z,3.38
2022-09-10T02:26:39.408Z,3.47
2022-09-10T02:29:10.412Z,2.47
2022-09-10T02:31:38.779Z,3.65
2022-09-10T02:34:05.486Z,5.07
2022-09-10T02:36:34.875Z,2.95
2022-09-10T02:39:09.224Z,2.25
2022-09-10T02:41:41.549Z,2.30
2022-09-10T02:44:08.705Z,3.33
2022-09-10T02:46:36.797Z,2.50
2022-09-10T02:49:03.486Z,4.95
2022-09-10T02:51:39.043Z,4.20
2022-09-10T02:54:08.830Z,3.35
2022-09-10T02:56:37.639Z,6.13
2022-09-10T02:59:06.667Z,3.25
2022-09-10T03:01:34.704Z,4.32
2022-09-10T03:04:04.412Z,2.67
2022-09-10T03:06:32.357Z,4.35
2022-09-10T03:09:01.613Z,6.68
2022-09-10T03:11:28.598Z,3.10
2022-09-10T03:13:58.716Z,3.92
2022-09-10T03:16:28.916Z,3.42
2022-09-10T03:19:01.175Z,5.28
2022-09-10T03:23:57.798Z,4.60
2022-09-10T03:26:28.659Z,5.53
2022-09-10T03:28:55.478Z,2.90
2022-09-10T03:31:27.108Z,3.47
2022-09-10T03:33:57.556Z,3.63
2022-09-10T03:36:31.079Z,5.22
2022-09-10T03:39:00.893Z,3.70
2022-09-10T03:41:37.853Z,4.38
2022-09-10T03:44:06.658Z,7.38
2022-09-10T03:46:36.256Z,6.50
2022-09-10T03:49:07.078Z,3.55
2022-09-10T03:51:35.097Z,3.28
2022-09-10T03:54:04.049Z,5.07
2022-09-10T03:56:34.184Z,6.07
2022-09-10T03:59:03.893Z,3.53
2022-09-10T04:01:30.796Z,7.07
2022-09-10T04:04:05.413Z,5.07
2022-09-10T04:06:35.398Z,5.63
2022-09-10T04:09:02.872Z,4.28
2022-09-10T04:11:29.798Z,6.45
2022-09-10T04:13:57.848Z,5.30
2022-09-10T04:16:25.563Z,6.85
2022-09-10T04:18:52.308Z,6.07
2022-09-10T04:21:20.154Z,3.38
2022-09-10T04:23:48.477Z,4.68
2022-09-10T04:26:20.300Z,7.60
2022-09-10T04:28:49.269Z,3.30
2022-09-10T04:31:17.138Z,3.97
2022-09-10T04:33:46.798Z,7.10
2022-09-10T04:36:17.545Z,3.60
2022-09-10T04:38:44.550Z,8.25
2022-09-10T04:41:21.212Z,4.18
2022-09-10T04:43:48.164Z,6.55
2022-09-10T04:46:15.313Z,2.40
2022-09-10T04:48:45.418Z,4.18
2022-09-10T04:51:18.976Z,5.20
2022-09-10T04:53:51.362Z,5.40
2022-09-10T04:56:20.296Z,6.80
2022-09-10T04:58:47.248Z,4.65
2022-09-10T05:01:14.281Z,5.28
2022-09-10T05:03:43.521Z,4.55
2022-09-10T05:06:11.352Z,7.57
2022-09-10T05:08:40.680Z,5.88
2022-09-10T05:11:09.019Z,5.32
2022-09-10T05:13:39.373Z,3.13
2022-09-10T05:16:08.745Z,3.85
2022-09-10T05:18:37.574Z,4.25
2022-09-10T05:21:05.453Z,7.45
2022-09-10T05:23:33.807Z,6.32
2022-09-10T05:26:01.555Z,5.97
2022-09-10T05:28:28.688Z,5.50
2022-09-10T05:30:55.431Z,2.97
2022-09-10T05:33:26.093Z,6.35
2022-09-10T05:35:55.001Z,6.72
2022-09-10T05:38:21.810Z,4.15
2022-09-10T05:40:50.067Z,6.32
2022-09-10T05:43:16.800Z,5.18
2022-09-10T05:45:45.056Z,3.38
2022-09-10T05:48:14.444Z,5.90
2022-09-10T05:50:41.324Z,6.70
2022-09-10T05:53:12.319Z,4.97
2022-09-10T05:55:41.541Z,4.38
2022-09-10T05:58:08.324Z,4.35
2022-09-10T06:00:38.014Z,5.47
2022-09-10T06:03:05.755Z,5.28
2022-09-10T06:05:38.379Z,4.32
2022-09-10T06:08:08.525Z,7.68
2022-09-10T06:10:37.469Z,6.45
2022-09-10T06:13:04.295Z,4.32
2022-09-10T06:15:40.688Z,4.50
2022-09-10T06:18:07.339Z,5.25
2022-09-10T06:20:34.189Z,4.88
2022-09-10T06:23:01.727Z,7.05
2022-09-10T06:25:28.742Z,5.40
2022-09-10T06:28:00.433Z,4.15
2022-09-10T06:30:33.998Z,5.53
2022-09-10T06:33:13.028Z,7.05
2022-09-10T06:35:39.676Z,4.32
2022-09-10T06:38:06.781Z,6.88
2022-09-10T06:40:34.012Z,7.63
2022-09-10T06:43:03.662Z,7.82
2022-09-10T06:45:53.007Z,7.93
2022-09-10T06:48:45.664Z,6.10
2022-09-10T06:51:16.698Z,5.43
2022-09-10T06:53:46.482Z,6.80
2022-09-10T06:56:15.236Z,4.70
2022-09-10T06:58:43.362Z,6.60
2022-09-10T07:01:18.962Z,5.97
2022-09-10T07:03:57.483Z,4.43
2022-09-10T07:06:35.031Z,6.10
2022-09-10T07:09:06.061Z,5.22
2022-09-10T07:11:41.373Z,5.67
2022-09-10T07:14:13.749Z,6.38
2022-09-10T07:16:44.234Z,9.13
2022-09-10T07:19:13.324Z,4.85
2022-09-10T07:21:43.473Z,5.88
2022-09-10T07:24:21.155Z,4.53
2022-09-10T07:27:00.356Z,6.85
2022-09-10T07:29:30.982Z,4.57
2022-09-10T07:31:57.852Z,5.55
2022-09-10T07:34:29.479Z,6.57
2022-09-10T07:36:56.582Z,7.13
2022-09-10T07:39:26.134Z,5.68
2022-09-10T07:44:26.647Z,7.68
2022-09-10T07:46:56.341Z,4.80
2022-09-10T07:49:22.986Z,7.85
2022-09-10T07:51:57.708Z,5.57
2022-09-10T07:54:28.472Z,5.93
2022-09-10T07:56:56.458Z,5.63
2022-09-10T07:59:28.431Z,6.75
2022-09-10T08:02:01.753Z,6.22
2022-09-10T08:04:36.784Z,7.25
2022-09-10T08:07:06.052Z,6.72
2022-09-10T08:09:35.231Z,10.15
2022-09-10T08:12:03.482Z,8.98
2022-09-10T08:14:31.534Z,7.63
2022-09-10T08:16:58.248Z,7.22
2022-09-10T08:19:25.300Z,6.88
2022-09-10T08:21:52.890Z,9.93
2022-09-10T08:24:28.085Z,7.55
2022-09-10T08:26:54.993Z,8.90
2022-09-10T08:29:22.257Z,7.40
2022-09-10T08:31:48.913Z,8.43
2022-09-10T08:34:23.217Z,8.10
2022-09-10T08:36:59.407Z,8.30
2022-09-10T08:39:27.364Z,7.45
2022-09-10T08:41:59.873Z,7.60
2022-09-10T08:47:30.034Z,9.32
2022-09-10T08:50:30.024Z,8.73
2022-09-10T08:53:05.268Z,8.60
2022-09-10T08:55:34.073Z,9.43
2022-09-10T08:58:18.895Z,8.32
2022-09-10T09:00:53.709Z,8.07
2022-09-10T09:03:33.787Z,10.63
2022-09-10T09:06:03.778Z,9.40
2022-09-10T09:08:48.249Z,8.90
2022-09-10T09:11:39.396Z,9.23
2022-09-10T09:14:28.515Z,8.25
2022-09-10T09:16:55.617Z,8.50
2022-09-10T09:19:34.429Z,11.85
2022-09-10T09:22:21.041Z,11.20
2022-09-10T09:24:59.259Z,10.20
2022-09-10T09:27:41.416Z,9.57
2022-09-10T09:30:19.254Z,8.13
2022-09-10T09:32:47.880Z,9.50
2022-09-10T09:35:46.024Z,9.65
2022-09-10T09:38:26.552Z,14.52
2022-09-10T09:41:07.171Z,8.85
2022-09-10T09:43:59.793Z,8.90
2022-09-10T09:46:30.450Z,10.13
2022-09-10T09:49:02.305Z,11.48
2022-09-10T09:51:35.217Z,9.80
2022-09-10T09:57:02.846Z,12.35
2022-09-10T09:59:31.830Z,9.52
2022-09-10T10:02:14.149Z,12.10
2022-09-10T10:05:15.938Z,9.15
2022-09-10T10:07:48.480Z,9.30
2022-09-10T10:10:24.762Z,9.00
2022-09-10T10:12:53.815Z,9.25
2022-09-10T10:15:41.850Z,9.95
2022-09-10T10:18:31.779Z,10.82
2022-09-10T10:21:13.212Z,11.30
2022-09-10T10:23:40.140Z,9.75
2022-09-10T10:26:15.877Z,10.27
2022-09-10T10:28:46.601Z,11.88
2022-09-10T10:31:14.446Z,10.90
2022-09-10T10:33:55.854Z,10.52
2022-09-10T10:36:39.432Z,10.50
2022-09-10T10:39:24.248Z,9.43
2022-09-10T10:42:23.144Z,9.63
2022-09-10T10:45:18.244Z,9.10
2022-09-10T10:47:54.013Z,9.45
2022-09-10T10:50:32.669Z,9.75
2022-09-10T10:53:34.314Z,9.55
2022-09-10T10:56:37.111Z,9.90
2022-09-10T10:59:35.477Z,9.45
2022-09-10T11:02:33.473Z,11.07
2022-09-10T11:05:07.124Z,11.27
2022-09-10T11:07:40.869Z,11.02
2022-09-10T11:10:34.125Z,9.50
2022-09-10T11:13:10.830Z,9.93
2022-09-10T11:15:59.382Z,9.75
2022-09-10T11:18:51.857Z,8.73
2022-09-10T11:21:31.148Z,9.48
2022-09-10T11:24:22.472Z,9.68
2022-09-10T11:26:58.912Z,8.98
2022-09-10T11:29:54.759Z,10.75
2022-09-10T11:32:43.380Z,8.90
2022-09-10T11:35:26.586Z,10.25
2022-09-10T11:38:17.036Z,8.27
2022-09-10T11:41:03.948Z,9.23
2022-09-10T11:43:47.259Z,11.05
2022-09-10T11:46:23.287Z,9.13
2022-09-10T11:49:05.206Z,9.60
2022-09-10T11:51:37.477Z,10.30
2022-09-10T11:54:09.823Z,8.80
2022-09-10T11:59:25.409Z,10.40
2022-09-10T12:02:32.532Z,8.25
2022-09-10T12:05:24.272Z,11.85
2022-09-10T12:08:10.478Z,8.37
2022-09-10T12:11:18.960Z,10.38
2022-09-10T12:13:47.416Z,8.43
2022-09-10T12:16:35.073Z,10.73
2022-09-10T12:19:06.932Z,7.93
2022-09-10T12:21:41.282Z,7.38
2022-09-10T12:24:25.558Z,8.82
2022-09-10T12:26:54.039Z,8.25
2022-09-10T12:29:43.206Z,8.57
2022-09-10T12:32:18.964Z,9.23
2022-09-10T12:34:48.335Z,9.40
2022-09-10T12:37:20.781Z,9.45
2022-09-10T12:39:48.929Z,8.18
2022-09-10T12:42:29.683Z,9.02
2022-09-10T12:44:56.760Z,8.13
2022-09-10T12:47:41.002Z,7.63
2022-09-10T12:50:20.436Z,10.77
2022-09-10T12:53:02.641Z,8.00
2022-09-10T12:55:59.976Z,6.38
2022-09-10T12:59:31.160Z,10.05
2022-09-10T13:01:58.246Z,6.80
2022-09-10T13:04:34.939Z,6.13
2022-09-10T13:07:20.876Z,6.70
2022-09-10T13:10:01.493Z,6.20
2022-09-10T13:12:29.120Z,5.95
2022-09-10T13:14:57.497Z,6.28
2022-09-10T13:17:37.302Z,5.65
2022-09-10T13:20:22.377Z,7.13
2022-09-10T13:22:58.188Z,7.03
2022-09-10T13:25:35.013Z,7.53
2022-09-10T13:28:02.288Z,5.13
2022-09-10T13:30:29.766Z,4.97
2022-09-10T13:33:05.007Z,6.10
2022-09-10T13:36:06.916Z,6.03
2022-09-10T13:39:12.162Z,5.03
2022-09-10T13:42:06.452Z,3.03
2022-09-10T13:44:43.026Z,4.95
2022-09-10T13:47:24.093Z,2.80
2022-09-10T13:50:00.426Z,3.22
2022-09-10T13:52:35.241Z,2.22
2022-09-10T13:55:05.190Z,2.78
2022-09-10T13:57:41.205Z,4.57
2022-09-10T14:00:36.397Z,7.03
2022-09-10T14:03:20.799Z,6.43
2022-09-10T14:05:51.963Z,6.50
2022-09-10T14:08:21.474Z,5.82
2022-09-10T14:11:12.793Z,5.75
2022-09-10T14:13:45.372Z,6.03
2022-09-10T14:16:18.185Z,5.07
2022-09-10T14:18:48.618Z,5.55
2022-09-10T14:21:17.134Z,5.72
2022-09-10T14:23:46.310Z,5.53
2022-09-10T14:26:17.257Z,4.35
2022-09-10T14:29:03.863Z,7.53
2022-09-10T14:31:33.998Z,7.85
2022-09-10T14:34:24.971Z,5.50
2022-09-10T14:36:51.695Z,4.70
2022-09-10T14:39:19.939Z,4.53
2022-09-10T14:41:47.535Z,5.28
2022-09-10T14:44:22.656Z,4.95
2022-09-10T14:47:20.034Z,5.82
2022-09-10T14:49:47.098Z,5.90
2022-09-10T14:52:17.056Z,6.07
2022-09-10T14:54:45.456Z,4.57
2022-09-10T14:57:14.677Z,7.47
2022-09-10T14:59:43.639Z,7.32
2022-09-10T15:02:22.585Z,4.60
2022-09-10T15:04:50.009Z,5.20
2022-09-10T15:07:16.716Z,7.78
2022-09-10T15:09:43.369Z,3.92
2022-09-10T15:12:22.893Z,5.30
2022-09-10T15:14:49.963Z,5.90
2022-09-10T15:17:20.204Z,4.70
2022-09-10T15:19:46.993Z,4.40
2022-09-10T15:22:20.922Z,4.72
2022-09-10T15:25:08.621Z,4.47
2022-09-10T15:27:34.549Z,4.28
2022-09-10T15:30:01.146Z,4.90
2022-09-10T15:32:27.725Z,6.05
2022-09-10T15:34:57.115Z,4.57
2022-09-10T15:37:24.192Z,4.60
2022-09-10T15:39:51.643Z,5.57
2022-09-10T15:42:18.362Z,4.43
2022-09-10T15:44:44.984Z,4.10
2022-09-10T15:47:11.557Z,4.30
2022-09-10T15:49:38.155Z,4.32
2022-09-10T15:52:04.846Z,5.20
2022-09-10T15:54:33.265Z,5.95
2022-09-10T15:57:02.045Z,7.13
2022-09-10T15:59:28.679Z,7.25
2022-09-10T16:01:55.498Z,5.63
2022-09-10T16:04:22.874Z,5.28
2022-09-10T16:06:49.699Z,7.57
2022-09-10T16:09:16.347Z,6.07
2022-09-10T16:11:43.625Z,5.43
2022-09-10T16:14:13.508Z,7.78
2022-09-10T16:16:40.907Z,5.95
2022-09-10T16:19:07.895Z,6.38
2022-09-10T16:21:36.685Z,6.82
2022-09-10T16:24:05.077Z,5.25
2022-09-10T16:26:34.533Z,5.78
2022-09-10T16:29:06.237Z,5.13
2022-09-10T16:31:35.310Z,6.88
2022-09-10T16:34:04.716Z,7.07
2022-09-10T16:36:33.632Z,4.78
2022-09-10T16:39:05.071Z,5.22
2022-09-10T16:41:32.995Z,5.87
2022-09-10T16:44:00.416Z,5.32
2022-09-10T16:46:28.407Z,5.25
2022-09-10T16:48:57.505Z,6.65
2022-09-10T16:51:25.609Z,5.35
2022-09-10T16:53:57.585Z,6.38
2022-09-10T16:56:25.529Z,5.30
2022-09-10T16:58:52.988Z,5.30
2022-09-10T17:01:20.783Z,5.38
2022-09-10T17:03:54.644Z,5.28
2022-09-10T17:06:26.873Z,5.45
2022-09-10T17:11:22.659Z,6.30
2022-09-10T17:13:50.756Z,6.05
2022-09-10T17:16:24.619Z,5.13
2022-09-10T17:19:14.136Z,6.07
2022-09-10T17:21:43.327Z,6.40
2022-09-10T17:24:12.106Z,5.95
2022-09-10T17:26:40.568Z,6.18
2022-09-10T17:29:12.711Z,6.03
2022-09-10T17:31:39.620Z,7.05
2022-09-10T17:34:06.645Z,7.53
2022-09-10T17:36:33.942Z,7.15
2022-09-10T17:39:00.884Z,7.28
2022-09-10T17:41:28.666Z,8.02
2022-09-10T17:43:57.503Z,6.85
2022-09-10T17:46:24.406Z,8.35
2022-09-10T17:48:53.413Z,6.40
2022-09-10T17:51:32.028Z,9.25
2022-09-10T17:53:58.872Z,8.70
2022-09-10T17:56:26.815Z,7.35
2022-09-10T17:59:01.505Z,11.07
2022-09-10T18:01:31.038Z,7.35
2022-09-10T18:04:00.824Z,7.63
2022-09-10T18:06:28.935Z,10.98
2022-09-10T18:08:58.977Z,8.23
2022-09-10T18:11:28.104Z,8.52
2022-09-10T18:13:57.576Z,8.95
2022-09-10T18:16:26.944Z,7.50
2022-09-10T18:18:56.460Z,9.95
2022-09-10T18:21:25.911Z,7.28
2022-09-10T18:24:00.639Z,10.25
2022-09-10T18:26:29.635Z,8.88
2022-09-10T18:28:57.640Z,8.48
2022-09-10T18:31:26.791Z,8.63
2022-09-10T18:33:55.628Z,9.00
2022-09-10T18:36:23.660Z,8.88
2022-09-10T18:38:50.493Z,8.57
2022-09-10T18:41:31.818Z,9.48
2022-09-10T18:44:03.888Z,12.07
2022-09-10T18:46:32.207Z,8.63
2022-09-10T18:48:59.629Z,8.57
2022-09-10T18:51:28.150Z,9.32
2022-09-10T18:54:00.381Z,8.82
2022-09-10T18:56:29.811Z,8.07
2022-09-10T18:59:00.376Z,8.95
2022-09-10T19:01:31.213Z,9.15
2022-09-10T19:03:58.945Z,10.90
2022-09-10T19:06:29.784Z,8.38
2022-09-10T19:08:59.287Z,10.23
2022-09-10T19:11:32.503Z,9.85
2022-09-10T19:14:00.677Z,9.05
2022-09-10T19:16:30.140Z,8.90
2022-09-10T19:19:00.174Z,8.82
2022-09-10T19:21:28.690Z,8.95
2022-09-10T19:24:01.478Z,8.82
2022-09-10T19:26:31.822Z,8.65
2022-09-10T19:29:00.205Z,9.23
2022-09-10T19:31:29.036Z,9.65
2022-09-10T19:34:01.696Z,9.27
2022-09-10T19:36:31.598Z,10.00
2022-09-10T19:38:59.481Z,8.60
2022-09-10T19:41:26.246Z,9.85
2022-09-10T19:43:54.773Z,8.23
2022-09-10T19:46:23.094Z,9.18
2022-09-10T19:48:52.941Z,8.43
2022-09-10T19:51:20.581Z,8.32
2022-09-10T19:53:49.316Z,9.30
2022-09-10T19:56:24.392Z,10.70
2022-09-10T19:58:53.971Z,9.70
2022-09-10T20:01:30.999Z,9.77
2022-09-10T20:04:00.947Z,8.48
2022-09-10T20:06:29.773Z,11.48
2022-09-10T20:08:57.317Z,8.50
2022-09-10T20:11:32.885Z,8.93
2022-09-10T20:14:02.785Z,8.68
2022-09-10T20:16:29.976Z,8.75
2022-09-10T20:18:58.958Z,10.30
2022-09-10T20:21:33.539Z,8.32
2022-09-10T20:24:00.454Z,10.05
2022-09-10T20:26:34.998Z,11.13
2022-09-10T20:29:18.111Z,10.93
2022-09-10T20:31:48.350Z,9.65
2022-09-10T20:34:25.002Z,10.18
2022-09-10T20:36:56.858Z,9.07
2022-09-10T20:39:26.995Z,9.75
2022-09-10T20:41:55.960Z,8.70
2022-09-10T20:44:27.778Z,8.80
2022-09-10T20:47:00.818Z,10.40
2022-09-10T20:49:27.703Z,9.65
2022-09-10T20:51:55.170Z,9.63
2022-09-10T20:54:22.130Z,10.80
2022-09-10T20:56:48.866Z,10.63
2022-09-10T20:59:16.932Z,9.70
2022-09-10T21:01:47.360Z,10.95
2022-09-10T21:04:14.197Z,9.60
2022-09-10T21:06:40.892Z,9.82
2022-09-10T21:09:10.662Z,10.02
2022-09-10T21:11:38.028Z,10.52
2022-09-10T21:14:06.918Z,8.73
2022-09-10T21:16:36.487Z,10.02
2022-09-10T21:19:10.492Z,9.73
2022-09-10T21:21:40.579Z,10.40
2022-09-10T21:24:10.738Z,10.38
2022-09-10T21:26:39.272Z,12.30
2022-09-10T21:29:10.660Z,9.32
2022-09-10T21:31:37.648Z,10.13
2022-09-10T21:34:05.593Z,12.57
2022-09-10T21:36:34.740Z,12.98
2022-09-10T21:39:06.143Z,14.25
2022-09-10T21:41:39.410Z,9.67
2022-09-10T21:44:18.992Z,10.77
2022-09-10T21:46:49.178Z,10.60
2022-09-10T21:49:17.262Z,11.52
2022-09-10T21:51:47.464Z,12.93
2022-09-10T21:54:26.295Z,10.25
2022-09-10T21:56:55.856Z,11.95
2022-09-10T21:59:29.197Z,12.25
2022-09-10T22:01:58.209Z,11.40
2022-09-10T22:04:24.932Z,12.45
2022-09-10T22:06:57.926Z,11.52
2022-09-10T22:09:25.714Z,11.63
2022-09-10T22:11:54.095Z,10.73
2022-09-10T22:14:24.092Z,9.65
2022-09-10T22:16:53.532Z,8.88
2022-09-10T22:19:23.228Z,11.25
2022-09-10T22:21:51.774Z,10.07
2022-09-10T22:24:24.005Z,11.38
2022-09-10T22:26:55.647Z,10.13
2022-09-10T22:29:26.138Z,11.40
2022-09-10T22:31:52.761Z,11.05
2022-09-10T22:34:22.407Z,11.50
2022-09-10T22:36:51.825Z,12.98
2022-09-10T22:39:26.589Z,13.27
2022-09-10T22:41:53.390Z,12.55
2022-09-10T22:44:23.034Z,11.45
2022-09-10T22:46:52.187Z,12.38
2022-09-10T22:49:24.613Z,12.50
2022-09-10T22:51:53.745Z,12.35
2022-09-10T22:54:20.409Z,13.25
2022-09-10T22:56:47.117Z,11.70
2022-09-10T22:59:17.213Z,11.82
2022-09-10T23:01:47.195Z,11.55
2022-09-10T23:04:17.462Z,14.85
2022-09-10T23:06:44.093Z,12.57
2022-09-10T23:09:15.726Z,13.68
2022-09-10T23:11:46.381Z,12.82
2022-09-10T23:14:16.619Z,14.02
2022-09-10T23:16:48.757Z,11.00
2022-09-10T23:19:18.752Z,12.82
2022-09-10T23:21:49.866Z,12.65
2022-09-10T23:24:22.030Z,11.68
2022-09-10T23:26:48.771Z,12.60
2022-09-10T23:29:20.489Z,14.05
2022-09-10T23:31:52.785Z,13.60
2022-09-10T23:34:21.246Z,19.63
2022-09-10T23:36:48.843Z,12.57
2022-09-10T23:39:20.248Z,15.45
2022-09-10T23:41:48.184Z,11.85
2022-09-10T23:44:17.352Z,12.02
2022-09-10T23:46:45.509Z,11.85
2022-09-10T23:49:14.861Z,11.77
2022-09-10T23:51:41.647Z,14.00
2022-09-10T23:54:09.500Z,13.30
2022-09-10T23:56:36.109Z,12.40
2022-09-10T23:59:05.586Z,13.00
